Time;durP1;ratioP1;P1;durP2;ratioP2;P2;SDS_P1;SDS_P2;PMS_P1;PMS_P2;Temp;Humidity;BMP_temperature;BMP_pressure;BME280_temperature;BME280_humidity;BME280_pressure;Samples;Min_cycle;Max_cycle;Signal;HPM_P1;HPM_P2
2022/09/09 05:12:22;;;;;;;2.97;0.77;;;;;;;10.50;96.45;100928.69;6184964;23;20829;-79
2022/09/09 05:14:47;;;;;;;4.35;1.05;;;;;;;11.84;96.62;101136.75;6215386;23;19997;-85
2022/09/09 05:17:13;;;;;;;2.00;1.00;;;;;;;11.39;95.42;101030.31;6189385;23;20024;-84
2022/09/09 05:19:39;;;;;;;5.07;1.25;;;;;;;12.06;95.43;101144.75;6214944;23;19989;-85
2022/09/09 05:22:04;;;;;;;2.38;1.02;;;;;;;10.94;95.21;100976.81;6188899;23;20020;-84
2022/09/09 05:29:43;;;;;;;2.67;1.00;;;;;;;10.86;94.03;100935.72;6204469;23;20027;-83
2022/09/09 05:37:19;;;;;;;2.45;0.93;;;;;;;11.71;94.71;101078.16;6199782;23;20009;-85
2022/09/09 05:42:19;;;;;;;3.15;0.90;;;;;;;11.23;95.66;101016.13;6214277;23;20084;-86
2022/09/09 05:47:20;;;;;;;3.28;0.98;;;;;;;11.47;95.55;101044.44;6195065;23;20012;-86
2022/09/09 06:33:44;;;;;;;6.50;1.67;;;;;;;11.94;95.82;101095.94;6202521;23;20000;-83
2022/09/09 06:43:56;;;;;;;4.10;1.83;;;;;;;11.30;96.09;100989.25;6174777;22;20028;-85
2022/09/09 07:01:40;;;;;;;3.40;1.38;;;;;;;11.47;95.47;100943.91;6212608;22;20013;-85
2022/09/09 07:04:08;;;;;;;2.88;1.48;;;;;;;11.51;95.06;100937.09;6188474;23;19997;-84
2022/09/09 07:09:11;;;;;;;3.42;1.30;;;;;;;11.63;94.93;100937.34;6212910;23;20005;-84
2022/09/09 07:14:13;;;;;;;5.60;1.17;;;;;;;11.54;95.43;100942.09;6185625;23;20010;-86
2022/09/09 07:16:40;;;;;;;1.95;1.00;;;;;;;12.81;94.85;101134.78;6183752;23;20033;-86
2022/09/09 07:24:16;;;;;;;3.08;1.25;;;;;;;12.44;94.75;101043.34;6157503;22;21055;-80
2022/09/09 07:26:42;;;;;;;1.73;1.13;;;;;;;13.55;94.75;101221.13;6243561;23;20060;-85
2022/09/09 07:29:08;;;;;;;6.00;1.17;;;;;;;12.61;95.03;101078.88;6217746;23;19988;-85
2022/09/09 07:31:36;;;;;;;4.03;1.17;;;;;;;12.32;94.72;101017.19;6217533;23;20005;-85
2022/09/09 07:34:03;;;;;;;4.85;1.15;;;;;;;13.21;95.05;101151.00;6217207;23;20028;-84
2022/09/09 07:36:32;;;;;;;3.75;1.13;;;;;;;11.88;94.87;100943.03;6216560;23;19997;-85
2022/09/09 07:39:09;;;;;;;3.10;1.20;;;;;;;13.66;95.03;101208.00;6212328;23;20012;-84
2022/09/09 07:41:41;;;;;;;3.33;1.02;;;;;;;12.61;95.16;101051.88;6186659;23;20028;-85
2022/09/09 07:44:13;;;;;;;5.97;1.10;;;;;;;12.79;94.76;101062.09;6213177;23;20084;-85
2022/09/09 07:46:39;;;;;;;2.95;1.20;;;;;;;13.28;94.66;101125.69;6188055;23;19996;-85
2022/09/09 07:49:05;;;;;;;3.50;1.10;;;;;;;12.11;94.75;100948.88;6213425;23;20009;-86
2022/09/09 07:59:17;;;;;;;4.85;1.10;;;;;;;13.92;94.72;101207.97;6200857;23;20040;-85
2022/09/09 08:01:47;;;;;;;5.85;1.20;;;;;;;13.98;94.52;101200.88;6187982;23;19997;-85
2022/09/09 08:04:18;;;;;;;3.63;1.10;;;;;;;12.46;93.96;100954.94;6187595;23;20009;-83
2022/09/09 08:06:47;;;;;;;2.28;1.10;;;;;;;14.07;94.08;101197.75;6187334;23;19997;-83
2022/09/09 08:09:14;;;;;;;4.72;1.30;;;;;;;13.57;94.07;101116.28;6163575;23;20032;-83
2022/09/09 08:14:17;;;;;;;5.57;1.33;;;;;;;14.24;93.85;101198.09;6213571;23;20001;-85
2022/09/09 08:16:46;;;;;;;3.53;1.20;;;;;;;14.08;93.87;101160.69;6187408;23;20056;-84
2022/09/09 08:19:12;;;;;;;5.32;1.13;;;;;;;13.80;93.06;101123.09;6187555;23;20001;-84
2022/09/09 08:21:39;;;;;;;2.78;1.15;;;;;;;13.27;92.72;101015.09;6213181;23;20013;-85
2022/09/09 08:24:06;;;;;;;7.75;1.65;;;;;;;14.60;92.13;101195.88;6214687;23;20047;-84
2022/09/09 08:26:41;;;;;;;2.80;1.30;;;;;;;13.06;91.29;100965.66;6213482;23;20013;-84
2022/09/09 08:29:09;;;;;;;5.40;1.35;;;;;;;14.79;90.76;101194.94;6187868;23;20000;-83
2022/09/09 08:31:40;;;;;;;2.97;1.10;;;;;;;13.35;89.62;100940.03;6213749;23;20032;-84
2022/09/09 08:34:07;;;;;;;5.43;1.58;;;;;;;13.83;88.83;100984.72;6189736;23;19993;-86
2022/09/09 08:36:36;;;;;;;3.65;1.48;;;;;;;15.14;88.67;101192.66;6214885;23;20009;-84
2022/09/09 08:39:04;;;;;;;3.05;1.20;;;;;;;13.94;88.08;100981.34;6188919;23;19993;-84
2022/09/09 08:41:39;;;;;;;4.05;1.20;;;;;;;14.32;87.24;101026.47;6189400;23;20003;-85
2022/09/09 08:44:27;;;;;;;5.43;1.50;;;;;;;15.47;86.75;101195.09;6189236;23;20001;-84
2022/09/09 08:47:14;;;;;;;4.47;1.23;;;;;;;15.61;86.08;101198.50;6189528;23;19992;-84
2022/09/09 08:50:17;;;;;;;3.05;1.08;;;;;;;15.59;86.81;101195.16;6189041;23;19993;-84
2022/09/09 08:53:01;;;;;;;4.72;1.48;;;;;;;15.10;88.48;101130.94;6189157;23;20044;-84
2022/09/09 08:55:46;;;;;;;3.05;1.30;;;;;;;15.33;89.92;101196.25;6214481;23;20423;-85
2022/09/09 08:58:14;;;;;;;7.00;1.15;;;;;;;15.27;90.60;101197.13;6214967;23;20053;-83
2022/09/09 09:00:49;;;;;;;5.82;1.15;;;;;;;14.13;91.03;101040.97;6189222;23;20077;-84
2022/09/09 09:03:44;;;;;;;2.83;1.20;;;;;;;14.26;91.53;101065.25;6214872;23;20001;-82
2022/09/09 09:11:20;;;;;;;5.75;1.38;;;;;;;13.84;91.30;100995.34;6213139;23;20035;-84
2022/09/09 09:13:45;;;;;;;3.97;1.30;;;;;;;15.22;91.94;101207.78;6215117;23;19993;-83
2022/09/09 09:16:33;;;;;;;5.00;1.30;;;;;;;14.47;91.51;101094.72;6189482;23;20047;-84
2022/09/09 09:37:19;;;;;;;4.82;1.23;;;;;;;14.53;86.26;100984.69;6201758;23;20001;-83
2022/09/09 09:39:45;;;;;;;4.70;1.50;;;;;;;14.85;86.05;101031.53;6214239;23;20016;-85
2022/09/09 09:42:19;;;;;;;3.55;1.40;;;;;;;14.47;84.85;100945.78;6181599;23;20029;-85
2022/09/09 09:44:44;;;;;;;4.37;1.40;;;;;;;14.85;85.77;100984.66;6188501;23;20056;-85
2022/09/09 09:47:17;;;;;;;6.75;1.27;;;;;;;16.15;84.97;101185.25;6214058;23;20215;-85
2022/09/09 10:13:11;;;;;;;6.78;1.33;;;;;;;15.03;83.75;101004.47;6212672;23;20068;-83
2022/09/09 10:15:50;;;;;;;4.25;1.13;;;;;;;16.30;84.38;101172.13;6188227;23;20039;-84
2022/09/09 10:20:56;;;;;;;5.63;1.30;;;;;;;15.61;85.76;101103.56;6180165;23;20005;-82
2022/09/09 10:24:01;;;;;;;4.13;1.50;;;;;;;16.11;86.15;101184.03;6158187;23;19994;-83
2022/09/09 10:26:27;;;;;;;6.50;1.77;;;;;;;16.14;87.23;101186.31;6158056;23;20037;-81
2022/09/09 10:29:17;;;;;;;2.05;1.25;;;;;;;15.98;88.63;101182.31;6158052;23;20244;-84
2022/09/09 10:31:48;;;;;;;7.40;1.35;;;;;;;16.06;88.52;101179.31;6183969;23;20033;-86
2022/09/09 10:34:39;;;;;;;4.60;1.45;;;;;;;15.90;89.77;101185.31;6159135;23;20056;-85
2022/09/09 10:37:23;;;;;;;8.57;1.60;;;;;;;15.17;90.49;101077.53;6158017;23;20008;-85
2022/09/09 10:39:53;;;;;;;5.03;1.60;;;;;;;15.70;92.03;101183.63;6158087;23;19989;-85
2022/09/09 10:42:28;;;;;;;6.00;1.50;;;;;;;14.82;92.99;101047.41;6157927;23;20000;-81
2022/09/09 11:05:59;;;;;;;9.07;1.80;;;;;;;13.44;100.00;100972.22;6170522;23;20031;-84
2022/09/09 11:08:28;;;;;;;3.38;1.80;;;;;;;13.55;100.00;100985.91;6187767;23;19993;-85
2022/09/09 11:11:16;;;;;;;4.65;1.88;;;;;;;14.89;100.00;101206.13;6213085;23;20079;-84
2022/09/09 18:01:52;;;;;;;2.05;1.65;;;;;;;13.69;100.00;101110.25;6185347;22;20097;-81
2022/09/09 18:14:39;;;;;;;1.95;1.50;;;;;;;14.67;100.00;101248.13;6195339;23;20017;-85
2022/09/09 18:35:11;;;;;;;2.75;1.25;;;;;;;13.43;100.00;101082.22;6192459;23;20004;-80
2022/09/09 18:37:36;;;;;;;1.67;1.20;;;;;;;13.66;100.00;101119.59;6187392;23;20093;-83
